sensor_id;sensor_type;location;lat;lon;timestamp;temperature;humidity
810;DHT22;387;48.772;9.186;2022-09-09T00:06:45;16.50;78.90
810;DHT22;387;48.772;9.186;2022-09-09T00:09:12;16.40;79.00
810;DHT22;387;48.772;9.186;2022-09-09T00:11:49;16.30;79.20
810;DHT22;387;48.772;9.186;2022-09-09T00:17:01;16.20;79.50
810;DHT22;387;48.772;9.186;2022-09-09T00:19:30;16.20;79.50
810;DHT22;387;48.772;9.186;2022-09-09T00:22:20;16.30;79.50
810;DHT22;387;48.772;9.186;2022-09-09T00:24:52;16.20;79.50
810;DHT22;387;48.772;9.186;2022-09-09T00:27:22;16.20;79.60
810;DHT22;387;48.772;9.186;2022-09-09T00:32:36;16.20;79.30
810;DHT22;387;48.772;9.186;2022-09-09T00:35:21;16.30;79.20
810;DHT22;387;48.772;9.186;2022-09-09T00:37:48;16.40;78.30
810;DHT22;387;48.772;9.186;2022-09-09T00:40:31;16.50;78.00
810;DHT22;387;48.772;9.186;2022-09-09T00:43:30;16.50;77.70
810;DHT22;387;48.772;9.186;2022-09-09T00:46:21;16.60;77.70
810;DHT22;387;48.772;9.186;2022-09-09T00:57:12;16.90;75.50
810;DHT22;387;48.772;9.186;2022-09-09T00:59:51;17.00;75.20
810;DHT22;387;48.772;9.186;2022-09-09T01:02:27;17.10;74.50
810;DHT22;387;48.772;9.186;2022-09-09T01:05:05;17.20;74.00
810;DHT22;387;48.772;9.186;2022-09-09T01:07:32;17.30;73.50
810;DHT22;387;48.772;9.186;2022-09-09T01:09:59;17.30;73.00
810;DHT22;387;48.772;9.186;2022-09-09T01:12:41;17.40;72.90
810;DHT22;387;48.772;9.186;2022-09-09T01:15:15;17.50;72.40
810;DHT22;387;48.772;9.186;2022-09-09T01:18:05;17.50;71.80
810;DHT22;387;48.772;9.186;2022-09-09T01:20:44;17.70;71.40
810;DHT22;387;48.772;9.186;2022-09-09T01:29:12;17.70;71.10
810;DHT22;387;48.772;9.186;2022-09-09T01:31:41;17.70;71.60
810;DHT22;387;48.772;9.186;2022-09-09T01:34:15;17.70;71.80
810;DHT22;387;48.772;9.186;2022-09-09T01:39:19;17.50;72.90
810;DHT22;387;48.772;9.186;2022-09-09T01:41:45;17.40;73.20
810;DHT22;387;48.772;9.186;2022-09-09T01:44:11;17.30;73.50
810;DHT22;387;48.772;9.186;2022-09-09T01:46:37;17.20;73.70
810;DHT22;387;48.772;9.186;2022-09-09T01:49:05;17.20;73.30
810;DHT22;387;48.772;9.186;2022-09-09T01:51:31;17.30;73.30
810;DHT22;387;48.772;9.186;2022-09-09T01:53:57;17.40;72.90
810;DHT22;387;48.772;9.186;2022-09-09T02:02:11;17.40;73.20
810;DHT22;387;48.772;9.186;2022-09-09T02:04:41;17.40;73.30
810;DHT22;387;48.772;9.186;2022-09-09T02:09:59;17.40;72.90
810;DHT22;387;48.772;9.186;2022-09-09T02:12:28;17.30;73.30
810;DHT22;387;48.772;9.186;2022-09-09T02:15:01;17.30;73.20
810;DHT22;387;48.772;9.186;2022-09-09T02:17:32;17.40;72.90
810;DHT22;387;48.772;9.186;2022-09-09T02:20:07;17.40;72.90
810;DHT22;387;48.772;9.186;2022-09-09T02:22:34;17.40;73.20
810;DHT22;387;48.772;9.186;2022-09-09T02:25:02;17.40;73.50
810;DHT22;387;48.772;9.186;2022-09-09T02:27:28;17.30;73.50
810;DHT22;387;48.772;9.186;2022-09-09T02:29:54;17.30;73.90
810;DHT22;387;48.772;9.186;2022-09-09T02:32:23;17.20;74.00
810;DHT22;387;48.772;9.186;2022-09-09T02:34:53;17.10;74.90
810;DHT22;387;48.772;9.186;2022-09-09T02:37:24;17.10;75.20
810;DHT22;387;48.772;9.186;2022-09-09T02:39:54;17.10;75.50
810;DHT22;387;48.772;9.186;2022-09-09T02:42:20;16.90;75.80
810;DHT22;387;48.772;9.186;2022-09-09T02:44:45;16.80;76.50
810;DHT22;387;48.772;9.186;2022-09-09T02:47:39;16.70;77.10
810;DHT22;387;48.772;9.186;2022-09-09T02:55:30;16.40;78.00
810;DHT22;387;48.772;9.186;2022-09-09T02:58:00;16.30;78.40
810;DHT22;387;48.772;9.186;2022-09-09T03:00:28;16.30;78.90
810;DHT22;387;48.772;9.186;2022-09-09T03:02:54;16.20;79.20
810;DHT22;387;48.772;9.186;2022-09-09T03:05:20;16.20;79.00
810;DHT22;387;48.772;9.186;2022-09-09T03:07:46;16.00;80.30
810;DHT22;387;48.772;9.186;2022-09-09T03:10:12;15.90;80.80
810;DHT22;387;48.772;9.186;2022-09-09T03:12:39;15.90;81.10
810;DHT22;387;48.772;9.186;2022-09-09T03:15:05;16.00;80.80
810;DHT22;387;48.772;9.186;2022-09-09T03:17:31;16.10;80.20
810;DHT22;387;48.772;9.186;2022-09-09T03:19:57;16.10;79.50
810;DHT22;387;48.772;9.186;2022-09-09T03:22:24;16.20;78.90
810;DHT22;387;48.772;9.186;2022-09-09T03:24:51;16.40;77.80
810;DHT22;387;48.772;9.186;2022-09-09T03:27:17;16.50;77.40
810;DHT22;387;48.772;9.186;2022-09-09T03:29:42;16.60;76.70
810;DHT22;387;48.772;9.186;2022-09-09T03:32:08;16.70;76.20
810;DHT22;387;48.772;9.186;2022-09-09T03:34:36;16.80;76.10
810;DHT22;387;48.772;9.186;2022-09-09T03:37:04;16.90;76.10
810;DHT22;387;48.772;9.186;2022-09-09T03:39:31;16.90;75.90
810;DHT22;387;48.772;9.186;2022-09-09T03:41:56;16.80;76.20
810;DHT22;387;48.772;9.186;2022-09-09T03:44:22;16.80;76.50
810;DHT22;387;48.772;9.186;2022-09-09T03:46:47;16.80;76.80
810;DHT22;387;48.772;9.186;2022-09-09T03:49:13;16.70;76.80
810;DHT22;387;48.772;9.186;2022-09-09T03:51:39;16.60;77.40
810;DHT22;387;48.772;9.186;2022-09-09T03:54:06;16.60;77.80
810;DHT22;387;48.772;9.186;2022-09-09T03:56:34;16.50;78.00
810;DHT22;387;48.772;9.186;2022-09-09T03:58:59;16.50;78.00
810;DHT22;387;48.772;9.186;2022-09-09T04:01:25;16.50;77.80
810;DHT22;387;48.772;9.186;2022-09-09T04:03:51;16.60;77.10
810;DHT22;387;48.772;9.186;2022-09-09T04:06:18;16.60;77.40
810;DHT22;387;48.772;9.186;2022-09-09T04:08:45;16.70;77.10
810;DHT22;387;48.772;9.186;2022-09-09T04:11:14;16.70;77.10
810;DHT22;387;48.772;9.186;2022-09-09T04:13:41;16.60;77.40
810;DHT22;387;48.772;9.186;2022-09-09T04:16:09;16.50;78.00
810;DHT22;387;48.772;9.186;2022-09-09T04:18:35;16.50;78.00
810;DHT22;387;48.772;9.186;2022-09-09T04:21:00;16.60;77.70
810;DHT22;387;48.772;9.186;2022-09-09T04:23:27;16.60;77.10
810;DHT22;387;48.772;9.186;2022-09-09T04:25:57;16.70;76.80
810;DHT22;387;48.772;9.186;2022-09-09T04:28:25;16.90;76.40
810;DHT22;387;48.772;9.186;2022-09-09T04:30:51;17.00;76.10
810;DHT22;387;48.772;9.186;2022-09-09T04:33:17;17.00;75.90
810;DHT22;387;48.772;9.186;2022-09-09T04:35:49;17.10;75.70
810;DHT22;387;48.772;9.186;2022-09-09T04:38:16;17.00;75.80
810;DHT22;387;48.772;9.186;2022-09-09T04:40:49;17.00;75.90
810;DHT22;387;48.772;9.186;2022-09-09T04:43:15;17.10;75.50
810;DHT22;387;48.772;9.186;2022-09-09T04:45:42;17.10;75.70
810;DHT22;387;48.772;9.186;2022-09-09T04:48:08;17.10;75.70
810;DHT22;387;48.772;9.186;2022-09-09T04:50:35;17.00;75.90
810;DHT22;387;48.772;9.186;2022-09-09T04:53:05;17.00;76.20
810;DHT22;387;48.772;9.186;2022-09-09T04:55:31;16.90;76.20
810;DHT22;387;48.772;9.186;2022-09-09T04:57:56;16.80;76.70
810;DHT22;387;48.772;9.186;2022-09-09T05:00:23;16.70;76.80
810;DHT22;387;48.772;9.186;2022-09-09T05:02:49;16.60;77.40
810;DHT22;387;48.772;9.186;2022-09-09T05:05:14;16.40;78.10
810;DHT22;387;48.772;9.186;2022-09-09T05:07:40;16.30;78.70
810;DHT22;387;48.772;9.186;2022-09-09T05:10:07;16.30;78.90
810;DHT22;387;48.772;9.186;2022-09-09T05:12:33;16.20;79.00
810;DHT22;387;48.772;9.186;2022-09-09T05:14:58;16.20;79.50
810;DHT22;387;48.772;9.186;2022-09-09T05:17:24;16.20;79.60
810;DHT22;387;48.772;9.186;2022-09-09T05:19:58;16.20;79.70
810;DHT22;387;48.772;9.186;2022-09-09T05:22:24;16.10;79.90
810;DHT22;387;48.772;9.186;2022-09-09T05:24:50;16.20;79.90
810;DHT22;387;48.772;9.186;2022-09-09T05:27:17;16.20;79.90
810;DHT22;387;48.772;9.186;2022-09-09T05:29:45;16.30;79.60
810;DHT22;387;48.772;9.186;2022-09-09T05:32:10;16.40;79.30
810;DHT22;387;48.772;9.186;2022-09-09T05:34:36;16.40;79.50
810;DHT22;387;48.772;9.186;2022-09-09T05:37:03;16.40;79.20
810;DHT22;387;48.772;9.186;2022-09-09T05:39:29;16.40;79.00
810;DHT22;387;48.772;9.186;2022-09-09T05:41:55;16.50;79.00
810;DHT22;387;48.772;9.186;2022-09-09T05:44:21;16.50;78.90
810;DHT22;387;48.772;9.186;2022-09-09T05:46:48;16.50;78.70
810;DHT22;387;48.772;9.186;2022-09-09T05:49:14;16.60;78.70
810;DHT22;387;48.772;9.186;2022-09-09T05:51:41;16.60;78.60
810;DHT22;387;48.772;9.186;2022-09-09T05:54:08;16.70;78.30
810;DHT22;387;48.772;9.186;2022-09-09T05:56:34;16.70;78.30
810;DHT22;387;48.772;9.186;2022-09-09T05:58:59;16.80;78.00
810;DHT22;387;48.772;9.186;2022-09-09T06:01:28;16.90;77.70
810;DHT22;387;48.772;9.186;2022-09-09T06:03:54;17.00;77.30
810;DHT22;387;48.772;9.186;2022-09-09T06:06:22;17.10;76.80
810;DHT22;387;48.772;9.186;2022-09-09T06:08:51;17.20;76.40
810;DHT22;387;48.772;9.186;2022-09-09T06:11:22;17.30;76.40
810;DHT22;387;48.772;9.186;2022-09-09T06:13:49;17.30;76.20
810;DHT22;387;48.772;9.186;2022-09-09T06:16:19;17.30;76.20
810;DHT22;387;48.772;9.186;2022-09-09T06:18:45;17.40;76.20
810;DHT22;387;48.772;9.186;2022-09-09T06:21:20;17.40;76.20
810;DHT22;387;48.772;9.186;2022-09-09T06:23:46;17.40;76.40
810;DHT22;387;48.772;9.186;2022-09-09T06:26:20;17.40;76.50
810;DHT22;387;48.772;9.186;2022-09-09T06:28:48;17.40;76.70
810;DHT22;387;48.772;9.186;2022-09-09T06:31:16;17.40;76.80
810;DHT22;387;48.772;9.186;2022-09-09T06:33:53;17.40;77.10
810;DHT22;387;48.772;9.186;2022-09-09T06:36:37;17.40;77.40
810;DHT22;387;48.772;9.186;2022-09-09T06:39:04;17.40;77.30
810;DHT22;387;48.772;9.186;2022-09-09T06:41:31;17.50;77.10
810;DHT22;387;48.772;9.186;2022-09-09T06:43:58;17.50;77.10
810;DHT22;387;48.772;9.186;2022-09-09T06:46:29;17.50;77.30
810;DHT22;387;48.772;9.186;2022-09-09T06:48:56;17.50;77.10
810;DHT22;387;48.772;9.186;2022-09-09T06:51:23;17.60;77.00
810;DHT22;387;48.772;9.186;2022-09-09T06:53:51;17.70;76.70
810;DHT22;387;48.772;9.186;2022-09-09T06:58:50;17.80;76.80
810;DHT22;387;48.772;9.186;2022-09-09T07:01:21;17.90;75.90
810;DHT22;387;48.772;9.186;2022-09-09T07:03:49;17.90;76.10
810;DHT22;387;48.772;9.186;2022-09-09T07:06:21;17.90;75.90
810;DHT22;387;48.772;9.186;2022-09-09T07:08:54;18.00;75.90
810;DHT22;387;48.772;9.186;2022-09-09T07:11:22;18.10;75.50
810;DHT22;387;48.772;9.186;2022-09-09T07:13:48;18.20;75.40
810;DHT22;387;48.772;9.186;2022-09-09T07:16:18;18.20;75.50
810;DHT22;387;48.772;9.186;2022-09-09T07:18:45;18.30;75.40
810;DHT22;387;48.772;9.186;2022-09-09T07:21:11;18.30;75.20
810;DHT22;387;48.772;9.186;2022-09-09T07:23:38;18.30;74.90
810;DHT22;387;48.772;9.186;2022-09-09T07:26:10;18.40;74.80
810;DHT22;387;48.772;9.186;2022-09-09T07:28:36;18.50;74.50
810;DHT22;387;48.772;9.186;2022-09-09T07:31:02;18.50;74.00
810;DHT22;387;48.772;9.186;2022-09-09T07:33:29;18.50;74.20
810;DHT22;387;48.772;9.186;2022-09-09T07:36:03;18.60;74.20
810;DHT22;387;48.772;9.186;2022-09-09T07:38:29;18.60;74.20
810;DHT22;387;48.772;9.186;2022-09-09T07:41:13;18.70;73.90
810;DHT22;387;48.772;9.186;2022-09-09T07:43:44;18.60;74.00
810;DHT22;387;48.772;9.186;2022-09-09T07:46:11;18.70;74.00
810;DHT22;387;48.772;9.186;2022-09-09T07:48:38;18.90;73.70
810;DHT22;387;48.772;9.186;2022-09-09T07:51:16;19.00;73.00
810;DHT22;387;48.772;9.186;2022-09-09T07:53:43;19.00;73.20
810;DHT22;387;48.772;9.186;2022-09-09T07:56:12;18.90;73.50
810;DHT22;387;48.772;9.186;2022-09-09T07:58:39;18.90;73.60
810;DHT22;387;48.772;9.186;2022-09-09T08:01:09;18.90;73.90
810;DHT22;387;48.772;9.186;2022-09-09T08:03:36;19.00;73.70
810;DHT22;387;48.772;9.186;2022-09-09T08:06:03;19.10;73.30
810;DHT22;387;48.772;9.186;2022-09-09T08:08:30;19.20;73.20
810;DHT22;387;48.772;9.186;2022-09-09T08:11:23;19.30;72.60
810;DHT22;387;48.772;9.186;2022-09-09T08:13:50;19.50;72.00
810;DHT22;387;48.772;9.186;2022-09-09T08:16:25;19.50;71.40
810;DHT22;387;48.772;9.186;2022-09-09T08:18:52;19.60;70.70
810;DHT22;387;48.772;9.186;2022-09-09T08:21:21;19.60;70.40
810;DHT22;387;48.772;9.186;2022-09-09T08:23:48;19.60;70.70
810;DHT22;387;48.772;9.186;2022-09-09T08:26:17;19.60;70.80
810;DHT22;387;48.772;9.186;2022-09-09T08:28:46;19.70;70.80
810;DHT22;387;48.772;9.186;2022-09-09T08:31:20;19.70;70.70
810;DHT22;387;48.772;9.186;2022-09-09T08:33:47;19.70;70.40
810;DHT22;387;48.772;9.186;2022-09-09T08:36:18;19.80;70.40
810;DHT22;387;48.772;9.186;2022-09-09T08:38:48;20.00;69.70
810;DHT22;387;48.772;9.186;2022-09-09T08:51:51;20.20;68.50
810;DHT22;387;48.772;9.186;2022-09-09T08:54:18;20.30;68.30
810;DHT22;387;48.772;9.186;2022-09-09T08:56:44;20.40;68.30
810;DHT22;387;48.772;9.186;2022-09-09T08:59:11;20.50;67.00
810;DHT22;387;48.772;9.186;2022-09-09T09:01:54;20.50;66.00
810;DHT22;387;48.772;9.186;2022-09-09T09:07:28;20.60;66.00
810;DHT22;387;48.772;9.186;2022-09-09T09:12:47;20.70;63.80
810;DHT22;387;48.772;9.186;2022-09-09T09:15:19;20.70;63.50
810;DHT22;387;48.772;9.186;2022-09-09T09:17:46;20.70;63.50
810;DHT22;387;48.772;9.186;2022-09-09T09:20:13;20.70;63.90
810;DHT22;387;48.772;9.186;2022-09-09T09:22:51;20.70;64.20
810;DHT22;387;48.772;9.186;2022-09-09T09:25:21;20.60;65.00
810;DHT22;387;48.772;9.186;2022-09-09T09:28:17;20.60;67.20
810;DHT22;387;48.772;9.186;2022-09-09T09:30:52;20.30;70.10
810;DHT22;387;48.772;9.186;2022-09-09T09:35:52;19.30;73.20
810;DHT22;387;48.772;9.186;2022-09-09T09:40:49;18.30;76.70
810;DHT22;387;48.772;9.186;2022-09-09T09:43:21;17.70;77.60
810;DHT22;387;48.772;9.186;2022-09-09T09:45:49;17.60;77.30
810;DHT22;387;48.772;9.186;2022-09-09T09:48:14;17.60;77.70
810;DHT22;387;48.772;9.186;2022-09-09T09:50:49;17.80;77.30
810;DHT22;387;48.772;9.186;2022-09-09T09:53:27;17.90;75.10
810;DHT22;387;48.772;9.186;2022-09-09T10:01:30;18.70;73.70
810;DHT22;387;48.772;9.186;2022-09-09T10:04:14;18.90;73.30
810;DHT22;387;48.772;9.186;2022-09-09T10:06:41;19.20;72.30
810;DHT22;387;48.772;9.186;2022-09-09T10:09:30;19.40;70.40
810;DHT22;387;48.772;9.186;2022-09-09T10:12:29;19.50;69.70
810;DHT22;387;48.772;9.186;2022-09-09T10:15:03;19.80;70.20
810;DHT22;387;48.772;9.186;2022-09-09T10:17:59;20.00;70.40
810;DHT22;387;48.772;9.186;2022-09-09T10:20:47;20.30;69.50
810;DHT22;387;48.772;9.186;2022-09-09T10:23:26;20.30;69.80
810;DHT22;387;48.772;9.186;2022-09-09T10:34:37;20.80;69.20
810;DHT22;387;48.772;9.186;2022-09-09T10:37:30;20.90;69.50
810;DHT22;387;48.772;9.186;2022-09-09T10:40:32;21.20;68.50
810;DHT22;387;48.772;9.186;2022-09-09T10:48:46;22.10;65.60
810;DHT22;387;48.772;9.186;2022-09-09T10:57:11;21.90;66.90
810;DHT22;387;48.772;9.186;2022-09-09T10:59:44;21.90;66.70
810;DHT22;387;48.772;9.186;2022-09-09T11:02:27;22.00;65.80
810;DHT22;387;48.772;9.186;2022-09-09T11:05:16;22.40;65.70
810;DHT22;387;48.772;9.186;2022-09-09T11:07:59;23.20;63.90
810;DHT22;387;48.772;9.186;2022-09-09T11:10:44;23.60;60.40
810;DHT22;387;48.772;9.186;2022-09-09T11:13:19;23.40;61.00
810;DHT22;387;48.772;9.186;2022-09-09T11:15:53;23.20;62.80
810;DHT22;387;48.772;9.186;2022-09-09T11:18:23;22.90;59.70
810;DHT22;387;48.772;9.186;2022-09-09T11:20:53;22.70;60.70
810;DHT22;387;48.772;9.186;2022-09-09T11:23:26;22.50;61.30
810;DHT22;387;48.772;9.186;2022-09-09T11:25:57;22.00;58.80
810;DHT22;387;48.772;9.186;2022-09-09T11:33:37;20.80;58.90
810;DHT22;387;48.772;9.186;2022-09-09T11:41:38;20.50;62.50
810;DHT22;387;48.772;9.186;2022-09-09T11:44:12;20.60;62.90
810;DHT22;387;48.772;9.186;2022-09-09T11:46:42;20.40;61.60
810;DHT22;387;48.772;9.186;2022-09-09T11:49:39;20.00;64.10
810;DHT22;387;48.772;9.186;2022-09-09T11:52:40;19.90;64.50
810;DHT22;387;48.772;9.186;2022-09-09T11:55:31;19.90;65.00
810;DHT22;387;48.772;9.186;2022-09-09T12:00:42;20.00;64.50
810;DHT22;387;48.772;9.186;2022-09-09T12:06:11;20.50;62.50
810;DHT22;387;48.772;9.186;2022-09-09T12:08:42;20.80;62.30
810;DHT22;387;48.772;9.186;2022-09-09T12:11:08;21.10;60.00
810;DHT22;387;48.772;9.186;2022-09-09T12:13:34;21.20;59.60
810;DHT22;387;48.772;9.186;2022-09-09T12:16:00;20.80;59.50
810;DHT22;387;48.772;9.186;2022-09-09T12:18:39;20.40;61.00
810;DHT22;387;48.772;9.186;2022-09-09T12:23:55;20.20;62.20
810;DHT22;387;48.772;9.186;2022-09-09T12:26:46;20.80;61.20
810;DHT22;387;48.772;9.186;2022-09-09T12:32:13;21.70;57.30
810;DHT22;387;48.772;9.186;2022-09-09T12:34:42;21.90;56.10
810;DHT22;387;48.772;9.186;2022-09-09T12:37:34;22.30;53.70
810;DHT22;387;48.772;9.186;2022-09-09T12:40:05;22.60;52.40
810;DHT22;387;48.772;9.186;2022-09-09T12:42:31;22.60;52.20
810;DHT22;387;48.772;9.186;2022-09-09T12:45:03;22.40;51.40
810;DHT22;387;48.772;9.186;2022-09-09T12:47:40;22.40;51.70
810;DHT22;387;48.772;9.186;2022-09-09T12:50:22;22.20;53.20
810;DHT22;387;48.772;9.186;2022-09-09T12:52:50;21.80;54.50
810;DHT22;387;48.772;9.186;2022-09-09T12:55:23;21.70;55.60
810;DHT22;387;48.772;9.186;2022-09-09T12:57:51;21.50;56.50
810;DHT22;387;48.772;9.186;2022-09-09T13:00:22;21.50;57.30
810;DHT22;387;48.772;9.186;2022-09-09T13:02:51;21.60;57.30
810;DHT22;387;48.772;9.186;2022-09-09T13:05:23;21.70;56.90
810;DHT22;387;48.772;9.186;2022-09-09T13:07:50;21.90;57.20
810;DHT22;387;48.772;9.186;2022-09-09T13:10:23;21.80;57.30
810;DHT22;387;48.772;9.186;2022-09-09T13:12:49;21.60;57.30
810;DHT22;387;48.772;9.186;2022-09-09T13:15:22;21.60;57.80
810;DHT22;387;48.772;9.186;2022-09-09T13:17:57;22.00;57.00
810;DHT22;387;48.772;9.186;2022-09-09T13:20:26;22.10;55.40
810;DHT22;387;48.772;9.186;2022-09-09T13:22:54;22.40;55.30
810;DHT22;387;48.772;9.186;2022-09-09T13:25:26;22.70;54.20
810;DHT22;387;48.772;9.186;2022-09-09T13:28:03;22.90;54.60
810;DHT22;387;48.772;9.186;2022-09-09T13:35:57;23.00;53.30
810;DHT22;387;48.772;9.186;2022-09-09T13:38:25;23.20;53.40
810;DHT22;387;48.772;9.186;2022-09-09T13:41:00;23.80;51.80
810;DHT22;387;48.772;9.186;2022-09-09T13:43:44;24.10;49.40
810;DHT22;387;48.772;9.186;2022-09-09T13:46:37;23.90;48.90
810;DHT22;387;48.772;9.186;2022-09-09T13:51:39;23.10;50.20
810;DHT22;387;48.772;9.186;2022-09-09T13:54:08;23.30;50.30
810;DHT22;387;48.772;9.186;2022-09-09T13:56:35;22.90;51.80
810;DHT22;387;48.772;9.186;2022-09-09T13:59:01;22.70;52.50
810;DHT22;387;48.772;9.186;2022-09-09T14:01:27;22.80;52.40
810;DHT22;387;48.772;9.186;2022-09-09T14:03:53;23.30;51.20
810;DHT22;387;48.772;9.186;2022-09-09T14:06:19;23.60;50.20
810;DHT22;387;48.772;9.186;2022-09-09T14:08:48;23.50;50.90
810;DHT22;387;48.772;9.186;2022-09-09T14:11:14;23.40;51.20
810;DHT22;387;48.772;9.186;2022-09-09T14:13:40;23.70;49.90
810;DHT22;387;48.772;9.186;2022-09-09T14:16:06;24.10;48.60
810;DHT22;387;48.772;9.186;2022-09-09T14:18:31;24.30;47.80
810;DHT22;387;48.772;9.186;2022-09-09T14:20:57;24.40;47.40
810;DHT22;387;48.772;9.186;2022-09-09T14:23:24;24.10;48.10
810;DHT22;387;48.772;9.186;2022-09-09T14:25:50;24.00;47.80
810;DHT22;387;48.772;9.186;2022-09-09T14:28:16;23.70;49.30
810;DHT22;387;48.772;9.186;2022-09-09T14:30:43;23.40;49.90
810;DHT22;387;48.772;9.186;2022-09-09T14:33:11;23.10;50.10
810;DHT22;387;48.772;9.186;2022-09-09T14:35:38;22.80;50.90
810;DHT22;387;48.772;9.186;2022-09-09T14:38:04;22.70;50.70
810;DHT22;387;48.772;9.186;2022-09-09T14:40:30;22.70;50.50
810;DHT22;387;48.772;9.186;2022-09-09T14:42:56;22.50;50.30
810;DHT22;387;48.772;9.186;2022-09-09T14:45:25;22.60;50.30
810;DHT22;387;48.772;9.186;2022-09-09T14:47:52;22.60;50.50
810;DHT22;387;48.772;9.186;2022-09-09T14:50:19;22.90;50.50
810;DHT22;387;48.772;9.186;2022-09-09T14:52:45;23.70;48.90
810;DHT22;387;48.772;9.186;2022-09-09T14:55:10;24.30;47.30
810;DHT22;387;48.772;9.186;2022-09-09T14:57:36;24.80;45.70
810;DHT22;387;48.772;9.186;2022-09-09T15:00:06;24.90;45.30
810;DHT22;387;48.772;9.186;2022-09-09T15:02:32;24.30;45.90
810;DHT22;387;48.772;9.186;2022-09-09T15:04:58;23.70;47.00
810;DHT22;387;48.772;9.186;2022-09-09T15:07:24;23.70;46.70
810;DHT22;387;48.772;9.186;2022-09-09T15:09:50;23.80;46.60
810;DHT22;387;48.772;9.186;2022-09-09T15:12:16;23.40;47.00
810;DHT22;387;48.772;9.186;2022-09-09T15:14:44;23.40;47.10
810;DHT22;387;48.772;9.186;2022-09-09T15:17:09;23.40;47.40
810;DHT22;387;48.772;9.186;2022-09-09T15:19:35;23.20;47.70
810;DHT22;387;48.772;9.186;2022-09-09T15:22:02;22.90;48.60
810;DHT22;387;48.772;9.186;2022-09-09T15:24:28;22.50;49.70
810;DHT22;387;48.772;9.186;2022-09-09T15:26:54;22.50;49.90
810;DHT22;387;48.772;9.186;2022-09-09T15:29:19;22.50;49.80
810;DHT22;387;48.772;9.186;2022-09-09T15:31:45;22.50;49.90
810;DHT22;387;48.772;9.186;2022-09-09T15:34:12;22.50;50.10
810;DHT22;387;48.772;9.186;2022-09-09T15:36:45;22.40;50.60
810;DHT22;387;48.772;9.186;2022-09-09T15:39:13;22.30;50.70
810;DHT22;387;48.772;9.186;2022-09-09T15:41:41;22.40;50.90
810;DHT22;387;48.772;9.186;2022-09-09T15:44:07;22.50;50.70
810;DHT22;387;48.772;9.186;2022-09-09T15:46:44;22.40;50.90
810;DHT22;387;48.772;9.186;2022-09-09T15:49:16;22.40;51.20
810;DHT22;387;48.772;9.186;2022-09-09T15:51:56;22.20;51.30
810;DHT22;387;48.772;9.186;2022-09-09T15:54:23;22.10;51.00
810;DHT22;387;48.772;9.186;2022-09-09T15:56:54;22.10;51.40
810;DHT22;387;48.772;9.186;2022-09-09T15:59:25;22.10;51.60
810;DHT22;387;48.772;9.186;2022-09-09T16:01:50;22.10;51.40
810;DHT22;387;48.772;9.186;2022-09-09T16:04:17;22.00;51.70
810;DHT22;387;48.772;9.186;2022-09-09T16:06:49;21.90;51.00
810;DHT22;387;48.772;9.186;2022-09-09T16:09:15;21.90;51.20
810;DHT22;387;48.772;9.186;2022-09-09T16:11:41;21.80;51.00
810;DHT22;387;48.772;9.186;2022-09-09T16:14:06;21.70;51.00
810;DHT22;387;48.772;9.186;2022-09-09T16:16:32;21.60;51.20
810;DHT22;387;48.772;9.186;2022-09-09T16:19:00;21.60;51.40
810;DHT22;387;48.772;9.186;2022-09-09T16:21:30;21.60;51.60
810;DHT22;387;48.772;9.186;2022-09-09T16:23:58;21.50;51.70
810;DHT22;387;48.772;9.186;2022-09-09T16:26:29;21.50;52.00
810;DHT22;387;48.772;9.186;2022-09-09T16:28:55;21.50;52.20
810;DHT22;387;48.772;9.186;2022-09-09T16:31:23;21.40;52.60
810;DHT22;387;48.772;9.186;2022-09-09T16:33:49;21.50;53.00
810;DHT22;387;48.772;9.186;2022-09-09T16:36:23;21.40;53.70
810;DHT22;387;48.772;9.186;2022-09-09T16:39:00;21.30;54.10
810;DHT22;387;48.772;9.186;2022-09-09T16:41:28;21.30;54.80
810;DHT22;387;48.772;9.186;2022-09-09T16:43:55;21.20;56.50
810;DHT22;387;48.772;9.186;2022-09-09T16:46:21;20.80;57.60
810;DHT22;387;48.772;9.186;2022-09-09T16:48:48;20.80;58.00
810;DHT22;387;48.772;9.186;2022-09-09T16:51:23;20.80;58.40
810;DHT22;387;48.772;9.186;2022-09-09T16:53:50;20.70;57.80
810;DHT22;387;48.772;9.186;2022-09-09T16:56:18;20.50;57.40
810;DHT22;387;48.772;9.186;2022-09-09T16:58:52;20.10;58.10
810;DHT22;387;48.772;9.186;2022-09-09T17:01:24;20.20;58.50
810;DHT22;387;48.772;9.186;2022-09-09T17:03:54;20.10;58.20
810;DHT22;387;48.772;9.186;2022-09-09T17:06:21;19.70;59.50
810;DHT22;387;48.772;9.186;2022-09-09T17:08:47;19.60;59.90
810;DHT22;387;48.772;9.186;2022-09-09T17:11:18;19.60;60.10
810;DHT22;387;48.772;9.186;2022-09-09T17:13:45;19.40;60.60
810;DHT22;387;48.772;9.186;2022-09-09T17:16:13;19.40;60.90
810;DHT22;387;48.772;9.186;2022-09-09T17:18:39;19.40;61.30
810;DHT22;387;48.772;9.186;2022-09-09T17:21:12;19.30;62.00
810;DHT22;387;48.772;9.186;2022-09-09T17:23:39;19.20;62.60
810;DHT22;387;48.772;9.186;2022-09-09T17:26:10;19.10;63.20
810;DHT22;387;48.772;9.186;2022-09-09T17:28:38;19.00;63.70
810;DHT22;387;48.772;9.186;2022-09-09T17:31:05;19.00;63.90
810;DHT22;387;48.772;9.186;2022-09-09T17:33:33;19.00;64.20
810;DHT22;387;48.772;9.186;2022-09-09T17:36:02;19.00;64.50
810;DHT22;387;48.772;9.186;2022-09-09T17:38:28;18.90;65.10
810;DHT22;387;48.772;9.186;2022-09-09T17:41:08;18.90;65.60
810;DHT22;387;48.772;9.186;2022-09-09T17:43:35;18.90;65.80
810;DHT22;387;48.772;9.186;2022-09-09T17:46:09;18.80;66.40
810;DHT22;387;48.772;9.186;2022-09-09T17:48:35;18.70;66.60
810;DHT22;387;48.772;9.186;2022-09-09T17:51:08;18.70;66.90
810;DHT22;387;48.772;9.186;2022-09-09T17:53:46;18.70;67.00
810;DHT22;387;48.772;9.186;2022-09-09T17:56:13;18.70;67.50
810;DHT22;387;48.772;9.186;2022-09-09T17:58:40;18.60;67.70
810;DHT22;387;48.772;9.186;2022-09-09T18:01:14;18.60;67.90
810;DHT22;387;48.772;9.186;2022-09-09T18:03:40;18.50;68.00
810;DHT22;387;48.772;9.186;2022-09-09T18:06:11;18.50;68.20
810;DHT22;387;48.772;9.186;2022-09-09T18:08:48;18.50;68.30
810;DHT22;387;48.772;9.186;2022-09-09T18:11:14;18.50;68.50
810;DHT22;387;48.772;9.186;2022-09-09T18:13:40;18.50;68.80
810;DHT22;387;48.772;9.186;2022-09-09T18:16:07;18.50;68.80
810;DHT22;387;48.772;9.186;2022-09-09T18:18:34;18.60;68.80
810;DHT22;387;48.772;9.186;2022-09-09T18:21:02;18.50;68.90
810;DHT22;387;48.772;9.186;2022-09-09T18:23:28;18.60;68.90
810;DHT22;387;48.772;9.186;2022-09-09T18:25:54;18.60;69.10
810;DHT22;387;48.772;9.186;2022-09-09T18:28:21;18.50;69.10
810;DHT22;387;48.772;9.186;2022-09-09T18:30:47;18.60;69.20
810;DHT22;387;48.772;9.186;2022-09-09T18:33:13;18.60;68.80
810;DHT22;387;48.772;9.186;2022-09-09T18:35:39;18.60;68.80
810;DHT22;387;48.772;9.186;2022-09-09T18:38:04;18.70;68.50
810;DHT22;387;48.772;9.186;2022-09-09T18:40:31;18.70;68.30
810;DHT22;387;48.772;9.186;2022-09-09T18:42:56;18.70;68.50
810;DHT22;387;48.772;9.186;2022-09-09T18:45:22;18.80;68.50
810;DHT22;387;48.772;9.186;2022-09-09T18:47:48;18.70;68.30
810;DHT22;387;48.772;9.186;2022-09-09T18:50:14;18.70;68.50
810;DHT22;387;48.772;9.186;2022-09-09T18:52:40;18.80;68.80
810;DHT22;387;48.772;9.186;2022-09-09T18:55:06;18.70;68.90